Time;durP1;ratioP1;P1;durP2;ratioP2;P2;SDS_P1;SDS_P2;PMS_P1;PMS_P2;Temp;Humidity;BMP_temperature;BMP_pressure;BME280_temperature;BME280_humidity;BME280_pressure;Samples;Min_cycle;Max_cycle;Signal;HPM_P1;HPM_P2
2022/03/14 00:01:14;;;;;;;5.35;4.40;;;18.40;52.00;;;;;;4974324;28;92632;-66
2022/03/14 00:03:50;;;;;;;4.80;4.22;;;18.40;53.00;;;;;;4973671;28;96536;-68
2022/03/14 00:06:17;;;;;;;5.13;4.35;;;18.30;52.00;;;;;;4974888;28;96345;-65
2022/03/14 00:08:45;;;;;;;4.68;4.20;;;18.30;52.00;;;;;;4975020;28;92907;-65
2022/03/14 00:11:12;;;;;;;4.97;4.05;;;18.30;52.00;;;;;;4973803;28;92736;-65
2022/03/14 00:13:38;;;;;;;4.78;4.10;;;18.30;51.90;;;;;;4974073;28;94751;-65
2022/03/14 00:16:03;;;;;;;4.60;4.10;;;18.30;52.00;;;;;;4974296;28;93807;-66
2022/03/14 00:18:34;;;;;;;4.88;3.90;;;18.30;51.90;;;;;;4974107;28;92669;-65
2022/03/14 00:20:59;;;;;;;4.45;4.05;;;18.30;51.90;;;;;;4975146;28;92034;-65
2022/03/14 00:23:26;;;;;;;4.60;3.97;;;18.30;51.90;;;;;;4973825;28;92806;-66
2022/03/14 00:25:52;;;;;;;4.25;3.53;;;18.30;52.00;;;;;;4973889;28;94764;-65
2022/03/14 00:28:19;;;;;;;4.43;4.03;;;18.30;51.90;;;;;;4972321;28;95335;-65
2022/03/14 00:30:45;;;;;;;4.63;3.97;;;18.30;52.00;;;;;;4974229;28;97104;-64
2022/03/14 00:33:11;;;;;;;4.35;3.50;;;18.30;51.90;;;;;;4973399;28;94109;-66
2022/03/14 00:35:36;;;;;;;4.68;3.67;;;18.30;51.90;;;;;;4974344;28;93040;-65
2022/03/14 00:38:03;;;;;;;4.55;3.72;;;18.30;51.90;;;;;;4973084;28;92838;-65
2022/03/14 00:40:30;;;;;;;4.28;3.63;;;18.30;52.00;;;;;;4975902;28;92718;-66
2022/03/14 00:42:55;;;;;;;4.45;3.70;;;18.30;51.90;;;;;;4974507;28;92772;-64
2022/03/14 00:45:23;;;;;;;4.60;3.15;;;18.30;51.90;;;;;;4975074;28;93671;-65
2022/03/14 00:47:49;;;;;;;4.05;3.65;;;18.30;51.80;;;;;;4974264;28;92884;-66
2022/03/14 00:50:14;;;;;;;3.60;3.30;;;18.30;51.80;;;;;;4973076;28;92528;-65
2022/03/14 00:52:40;;;;;;;3.50;3.20;;;18.30;51.90;;;;;;4972453;28;96593;-65
2022/03/14 00:55:06;;;;;;;3.92;3.53;;;18.30;51.90;;;;;;4974538;28;95499;-66
2022/03/14 00:57:32;;;;;;;4.03;3.30;;;18.30;51.90;;;;;;4973505;28;93032;-65
2022/03/14 00:59:58;;;;;;;4.07;3.55;;;18.30;51.90;;;;;;4973226;28;92960;-65
2022/03/14 01:02:24;;;;;;;3.70;3.40;;;18.30;51.90;;;;;;4973217;28;96538;-65
2022/03/14 01:04:50;;;;;;;4.35;3.50;;;18.30;52.90;;;;;;4972454;28;93673;-66
2022/03/14 01:07:25;;;;;;;3.42;3.08;;;18.30;51.90;;;;;;4974436;28;92539;-65
2022/03/14 01:09:51;;;;;;;3.65;3.35;;;18.30;51.90;;;;;;4976462;28;92004;-65
2022/03/14 01:12:16;;;;;;;4.82;3.67;;;18.20;51.90;;;;;;4972982;28;94321;-65
2022/03/14 01:14:43;;;;;;;3.50;3.20;;;18.20;51.80;;;;;;4974223;28;95151;-65
2022/03/14 01:17:10;;;;;;;3.85;3.22;;;18.20;51.80;;;;;;4972762;28;95290;-65
2022/03/14 01:19:38;;;;;;;4.47;3.13;;;18.20;51.80;;;;;;4974689;28;92516;-65
2022/03/14 01:22:10;;;;;;;3.10;2.67;;;18.20;51.80;;;;;;4974019;28;94656;-66
2022/03/14 01:24:38;;;;;;;3.40;3.10;;;18.20;51.90;;;;;;4974893;28;93507;-63
2022/03/14 01:27:07;;;;;;;3.72;2.80;;;18.20;51.80;;;;;;4974662;28;92857;-67
2022/03/14 01:29:34;;;;;;;3.20;2.90;;;18.20;51.80;;;;;;4975294;28;92728;-65
2022/03/14 01:32:01;;;;;;;3.38;3.05;;;18.20;51.90;;;;;;4956421;28;94293;-65
2022/03/14 01:34:26;;;;;;;3.20;2.88;;;18.20;51.80;;;;;;4975600;28;92614;-65
2022/03/14 01:36:52;;;;;;;3.55;3.25;;;18.20;51.80;;;;;;4974839;28;92468;-65
2022/03/14 01:39:18;;;;;;;3.22;2.88;;;18.20;51.90;;;;;;4975174;28;92571;-68
2022/03/14 01:41:44;;;;;;;3.72;2.92;;;18.20;51.90;;;;;;4971777;28;95549;-65
2022/03/14 01:44:12;;;;;;;3.17;2.88;;;18.20;51.80;;;;;;4972645;28;95470;-66
2022/03/14 01:46:45;;;;;;;3.25;2.95;;;18.20;51.80;;;;;;4973474;28;92537;-65
2022/03/14 01:49:11;;;;;;;2.90;2.70;;;18.20;51.80;;;;;;4972710;28;92760;-65
2022/03/14 01:51:40;;;;;;;3.47;3.17;;;18.20;51.80;;;;;;4971898;28;93865;-65
2022/03/14 01:54:09;;;;;;;3.20;2.90;;;18.20;51.80;;;;;;4972126;28;92847;-65
2022/03/14 01:56:38;;;;;;;2.92;2.63;;;18.20;51.70;;;;;;4971333;28;92477;-65
2022/03/14 01:59:04;;;;;;;3.58;2.80;;;18.20;51.70;;;;;;4971150;28;91845;-67
2022/03/14 02:01:29;;;;;;;3.10;2.80;;;18.20;51.80;;;;;;4971333;28;93170;-65
2022/03/14 02:03:55;;;;;;;3.00;2.70;;;18.10;51.70;;;;;;4971489;28;94146;-65
2022/03/14 02:06:20;;;;;;;3.05;2.75;;;18.10;51.80;;;;;;4969468;28;95452;-65
2022/03/14 02:08:46;;;;;;;3.47;2.90;;;18.10;51.70;;;;;;4971507;28;92967;-65
2022/03/14 02:11:12;;;;;;;3.03;2.67;;;18.10;51.70;;;;;;4971542;28;94523;-65
2022/03/14 02:13:37;;;;;;;3.30;2.70;;;18.10;51.80;;;;;;4971832;28;92957;-65
2022/03/14 02:16:03;;;;;;;3.00;2.70;;;18.10;51.70;;;;;;4971915;28;93103;-65
2022/03/14 02:18:32;;;;;;;3.00;2.70;;;18.10;51.70;;;;;;4972043;28;92479;-65
2022/03/14 02:20:58;;;;;;;2.72;2.53;;;18.10;51.70;;;;;;4971530;28;93130;-65
2022/03/14 02:23:23;;;;;;;2.65;2.30;;;18.10;51.70;;;;;;4971955;28;92871;-66
2022/03/14 02:25:52;;;;;;;2.80;2.60;;;18.10;51.70;;;;;;4973227;28;92515;-65
2022/03/14 02:28:21;;;;;;;2.83;2.55;;;18.10;51.70;;;;;;4974256;28;92940;-65
2022/03/14 02:30:47;;;;;;;2.83;2.53;;;18.10;51.70;;;;;;4973537;28;95980;-64
2022/03/14 02:33:13;;;;;;;2.40;2.20;;;18.10;51.70;;;;;;4971808;28;95717;-64
2022/03/14 02:35:42;;;;;;;2.60;2.22;;;18.10;51.70;;;;;;4972080;28;92519;-66
2022/03/14 02:38:11;;;;;;;3.35;2.42;;;18.10;51.70;;;;;;4970996;28;92976;-65
2022/03/14 02:40:40;;;;;;;2.67;2.47;;;18.10;51.70;;;;;;4971523;28;94684;-65
2022/03/14 02:43:06;;;;;;;2.35;2.10;;;18.10;51.70;;;;;;4971109;28;93069;-66
2022/03/14 02:45:32;;;;;;;2.38;2.17;;;18.10;51.70;;;;;;4970657;28;94120;-64
2022/03/14 02:47:59;;;;;;;2.60;2.40;;;18.10;51.70;;;;;;4970770;28;93361;-67
2022/03/14 02:50:25;;;;;;;3.03;2.72;;;18.10;51.70;;;;;;4974467;28;92795;-71
2022/03/14 02:52:59;;;;;;;2.65;2.45;;;18.10;51.70;;;;;;4973227;28;93064;-65
2022/03/14 02:55:25;;;;;;;2.85;2.63;;;18.10;51.70;;;;;;4977282;28;94830;-66
2022/03/14 02:57:52;;;;;;;2.53;2.30;;;18.10;51.70;;;;;;4971572;28;92839;-66
2022/03/14 03:00:19;;;;;;;2.80;2.50;;;18.10;51.80;;;;;;4970331;28;94241;-65
2022/03/14 03:02:44;;;;;;;2.60;2.20;;;18.10;51.70;;;;;;4970144;28;92794;-66
2022/03/14 03:05:10;;;;;;;2.40;2.20;;;18.00;51.70;;;;;;4970568;28;93074;-65
2022/03/14 03:07:36;;;;;;;2.50;2.30;;;18.00;52.60;;;;;;4969680;28;92873;-65
2022/03/14 03:10:03;;;;;;;2.30;2.10;;;18.00;51.60;;;;;;4969928;28;94851;-65
2022/03/14 03:12:30;;;;;;;2.20;2.00;;;18.00;51.70;;;;;;4969444;28;93006;-65
2022/03/14 03:14:55;;;;;;;2.40;2.20;;;18.00;51.60;;;;;;4952352;28;92673;-66
2022/03/14 03:17:21;;;;;;;2.33;2.05;;;18.00;51.60;;;;;;4970591;28;92472;-65
2022/03/14 03:19:47;;;;;;;1.85;1.75;;;18.00;51.60;;;;;;4968091;28;96814;-65
2022/03/14 03:22:12;;;;;;;2.33;2.13;;;18.00;51.60;;;;;;4969408;28;95179;-67
2022/03/14 03:24:38;;;;;;;2.35;2.00;;;18.00;51.60;;;;;;4969741;28;93063;-65
2022/03/14 03:27:04;;;;;;;2.28;2.08;;;18.00;51.60;;;;;;4968843;28;92961;-66
2022/03/14 03:29:29;;;;;;;1.90;1.80;;;18.00;51.60;;;;;;4970096;28;94189;-64
2022/03/14 03:31:55;;;;;;;1.92;1.83;;;18.00;51.60;;;;;;4969891;28;92790;-65
2022/03/14 03:34:21;;;;;;;2.20;2.00;;;18.00;51.60;;;;;;4971757;28;94603;-65
2022/03/14 03:36:46;;;;;;;2.38;2.17;;;18.00;51.70;;;;;;4971943;28;92225;-65
2022/03/14 03:39:12;;;;;;;1.95;1.85;;;18.00;51.80;;;;;;4971021;28;93042;-65
2022/03/14 03:41:38;;;;;;;2.35;1.80;;;18.00;51.70;;;;;;4970115;28;93344;-66
2022/03/14 03:44:04;;;;;;;2.40;2.00;;;18.00;51.70;;;;;;4969583;28;95320;-66
2022/03/14 03:46:30;;;;;;;2.15;1.95;;;18.00;51.60;;;;;;4971042;28;92654;-66
2022/03/14 03:48:56;;;;;;;2.22;2.03;;;18.00;51.60;;;;;;4970351;28;106889;-65
2022/03/14 03:51:22;;;;;;;2.22;2.03;;;18.00;51.70;;;;;;4969840;28;93537;-65
2022/03/14 03:53:47;;;;;;;2.20;2.00;;;18.00;51.60;;;;;;4969618;28;92742;-65
2022/03/14 03:56:13;;;;;;;1.90;1.80;;;18.00;51.60;;;;;;4970317;28;92747;-65
2022/03/14 03:58:39;;;;;;;2.20;2.00;;;18.00;51.70;;;;;;4968542;28;94228;-66
2022/03/14 04:01:05;;;;;;;2.10;1.90;;;18.00;51.60;;;;;;4970486;28;100743;-67
2022/03/14 04:03:30;;;;;;;2.28;1.90;;;18.00;51.60;;;;;;4952215;28;92512;-66
2022/03/14 04:05:56;;;;;;;2.13;1.92;;;17.90;51.50;;;;;;4970792;28;92811;-65
2022/03/14 04:08:23;;;;;;;2.20;2.00;;;18.00;51.70;;;;;;4967608;28;96867;-65
2022/03/14 04:10:54;;;;;;;1.92;1.77;;;17.90;51.60;;;;;;4969670;28;96175;-65
2022/03/14 04:13:23;;;;;;;1.73;1.63;;;17.90;51.60;;;;;;4969559;28;92886;-65
2022/03/14 04:15:52;;;;;;;2.03;1.83;;;17.90;51.60;;;;;;4969781;28;93242;-65
2022/03/14 04:18:20;;;;;;;2.30;1.90;;;17.90;51.60;;;;;;4968616;28;94673;-65
2022/03/14 04:20:46;;;;;;;1.95;1.85;;;17.90;51.60;;;;;;4970030;28;94562;-65
2022/03/14 04:23:12;;;;;;;2.40;2.20;;;17.90;51.60;;;;;;4970551;28;93043;-66
2022/03/14 04:25:38;;;;;;;2.47;2.08;;;17.90;51.60;;;;;;4970747;28;91828;-65
2022/03/14 04:28:04;;;;;;;2.35;1.98;;;17.90;51.60;;;;;;4968759;28;94697;-66
2022/03/14 04:30:30;;;;;;;2.13;1.88;;;17.90;51.60;;;;;;4969169;28;93589;-65
2022/03/14 04:32:56;;;;;;;2.05;1.80;;;17.90;51.70;;;;;;4968135;28;95329;-66
2022/03/14 04:35:21;;;;;;;2.28;1.85;;;17.90;51.60;;;;;;4968695;28;92956;-65
2022/03/14 04:37:47;;;;;;;2.35;2.15;;;17.90;51.60;;;;;;4968740;28;93951;-65
2022/03/14 04:40:14;;;;;;;1.70;1.60;;;17.90;51.70;;;;;;4971931;28;92759;-65
2022/03/14 04:42:40;;;;;;;1.77;1.67;;;17.90;51.60;;;;;;4972217;28;92779;-66
2022/03/14 04:45:06;;;;;;;2.22;2.03;;;17.90;51.60;;;;;;4972512;28;93007;-65
2022/03/14 04:47:32;;;;;;;1.73;1.63;;;17.90;51.70;;;;;;4971861;28;93026;-65
2022/03/14 04:49:58;;;;;;;1.98;1.77;;;17.90;51.60;;;;;;4972208;28;92747;-65
2022/03/14 04:52:24;;;;;;;2.45;2.20;;;17.90;51.60;;;;;;4971913;28;92674;-66
2022/03/14 04:54:50;;;;;;;2.05;1.88;;;17.90;51.70;;;;;;4972582;28;93040;-65
2022/03/14 04:57:15;;;;;;;1.90;1.60;;;17.90;51.60;;;;;;4969910;28;96755;-66
2022/03/14 04:59:41;;;;;;;1.90;1.80;;;17.90;51.60;;;;;;4971705;28;95196;-65
2022/03/14 05:02:06;;;;;;;2.03;1.80;;;17.90;51.70;;;;;;4971831;28;94422;-65
2022/03/14 05:04:33;;;;;;;2.10;1.90;;;17.80;51.60;;;;;;4972519;28;92938;-65
2022/03/14 05:06:59;;;;;;;1.90;1.70;;;17.80;51.50;;;;;;4973979;28;93192;-65
2022/03/14 05:09:25;;;;;;;1.60;1.50;;;17.80;51.60;;;;;;4976440;28;94559;-66
2022/03/14 05:11:52;;;;;;;2.17;1.98;;;17.80;52.60;;;;;;4974021;28;92772;-65
2022/03/14 05:14:19;;;;;;;2.00;1.85;;;17.80;51.70;;;;;;4973664;28;92235;-65
2022/03/14 06:18:22;;;;;;;1.90;1.70;;;18.30;53.30;;;;;;5503371;22;94993;-69
2022/03/14 06:20:47;;;;;;;1.60;1.38;;;18.40;52.70;;;;;;4974067;28;93608;-68
2022/03/14 06:23:15;;;;;;;2.42;1.60;;;18.50;52.80;;;;;;4975166;28;99783;-68
2022/03/14 06:25:40;;;;;;;1.70;1.60;;;18.60;52.40;;;;;;4974468;28;92533;-67
2022/03/14 06:28:07;;;;;;;1.80;1.70;;;18.70;52.50;;;;;;4973119;28;92490;-68
2022/03/14 06:30:32;;;;;;;1.73;1.63;;;18.80;52.50;;;;;;4956812;28;94277;-66
2022/03/14 06:32:58;;;;;;;1.60;1.50;;;18.90;52.20;;;;;;4973691;28;93774;-67
2022/03/14 06:35:24;;;;;;;1.65;1.38;;;18.90;52.10;;;;;;4972637;28;92581;-68
2022/03/14 06:37:50;;;;;;;2.63;1.60;;;19.00;52.10;;;;;;4973629;28;92487;-68
2022/03/14 06:40:15;;;;;;;1.45;1.35;;;19.10;51.80;;;;;;4972511;28;95434;-68
2022/03/14 06:42:48;;;;;;;2.38;1.45;;;19.10;51.60;;;;;;4973063;28;96307;-68
2022/03/14 06:45:15;;;;;;;;;;;19.10;52.00;;;;;;4973091;28;93133;-69
2022/03/14 06:47:41;;;;;;;2.42;1.50;;;19.10;52.10;;;;;;4972294;28;92525;-70
2022/03/14 06:50:09;;;;;;;2.80;1.42;;;19.10;51.60;;;;;;4970518;28;98502;-70
2022/03/14 06:52:35;;;;;;;3.53;1.70;;;19.20;51.40;;;;;;4970740;28;94597;-70
2022/03/14 06:55:04;;;;;;;1.85;1.42;;;19.20;51.30;;;;;;4970894;28;92649;-69
2022/03/14 06:57:30;;;;;;;1.63;1.33;;;19.20;51.20;;;;;;4971650;28;91749;-70
2022/03/14 06:59:56;;;;;;;3.63;1.70;;;19.20;51.20;;;;;;4970397;28;97083;-70
2022/03/14 07:02:25;;;;;;;3.70;1.70;;;19.20;51.20;;;;;;4969150;28;93420;-69
2022/03/14 07:04:50;;;;;;;4.90;1.77;;;19.20;51.20;;;;;;4969851;28;95132;-69
2022/03/14 07:07:16;;;;;;;3.60;1.70;;;19.20;51.20;;;;;;4970169;28;96081;-69
2022/03/14 07:09:41;;;;;;;3.63;1.58;;;19.20;51.40;;;;;;4970784;28;94290;-70
2022/03/14 07:12:11;;;;;;;3.10;1.58;;;19.20;51.40;;;;;;4969111;28;94555;-70
2022/03/14 07:14:36;;;;;;;3.97;1.90;;;19.20;51.50;;;;;;4971219;28;92556;-69
2022/03/14 07:17:02;;;;;;;3.28;1.80;;;19.10;51.60;;;;;;4969615;28;92931;-68
2022/03/14 07:19:28;;;;;;;7.32;1.92;;;19.10;51.80;;;;;;4970070;28;94397;-68
2022/03/14 07:21:53;;;;;;;7.47;1.92;;;19.10;51.90;;;;;;4970858;28;92919;-68
2022/03/14 07:24:19;;;;;;;13.07;2.20;;;19.10;52.10;;;;;;4970141;28;92714;-69
2022/03/14 07:26:44;;;;;;;4.53;1.95;;;19.00;52.10;;;;;;4951994;28;93049;-69
2022/03/14 07:29:11;;;;;;;7.32;2.17;;;19.00;52.30;;;;;;4968351;28;97137;-68
2022/03/14 07:31:37;;;;;;;8.30;2.00;;;19.00;53.30;;;;;;4969682;28;96601;-69
2022/03/14 07:34:04;;;;;;;2.55;1.88;;;18.90;52.40;;;;;;4969836;28;92551;-69
2022/03/14 07:36:30;;;;;;;5.65;1.77;;;18.90;52.50;;;;;;4970197;28;92765;-69
2022/03/14 07:38:56;;;;;;;7.55;2.15;;;18.90;52.50;;;;;;4969308;28;94316;-72
2022/03/14 07:41:23;;;;;;;11.48;1.95;;;18.90;52.50;;;;;;4969394;28;94562;-69
2022/03/14 07:43:48;;;;;;;3.50;1.95;;;18.80;52.50;;;;;;4970305;28;92599;-70
2022/03/14 07:46:14;;;;;;;7.35;1.77;;;18.80;52.60;;;;;;4970444;28;94368;-69
2022/03/14 07:48:39;;;;;;;5.32;2.33;;;18.80;52.70;;;;;;4970185;28;94340;-69
2022/03/14 07:51:06;;;;;;;2.63;1.58;;;18.70;52.70;;;;;;4970094;28;92917;-69
2022/03/14 07:53:31;;;;;;;4.97;1.98;;;18.80;52.80;;;;;;4967872;28;96325;-69
2022/03/14 07:55:57;;;;;;;5.82;1.92;;;18.70;52.80;;;;;;4970343;28;92564;-69
2022/03/14 07:58:23;;;;;;;3.50;1.90;;;18.70;52.80;;;;;;4969888;28;94325;-70
2022/03/14 08:00:48;;;;;;;3.15;1.40;;;18.70;52.80;;;;;;4969660;28;94119;-69
2022/03/14 08:03:15;;;;;;;7.70;1.90;;;18.70;52.80;;;;;;4970583;28;92702;-69
2022/03/14 08:05:42;;;;;;;4.65;1.80;;;18.70;52.80;;;;;;4970077;28;92621;-67
2022/03/14 08:08:08;;;;;;;3.55;1.88;;;18.60;52.70;;;;;;4969291;28;94960;-67
2022/03/14 08:10:36;;;;;;;6.30;1.77;;;18.70;52.80;;;;;;4970825;28;94345;-68
2022/03/14 08:13:02;;;;;;;2.95;1.80;;;18.60;52.80;;;;;;4972254;28;92547;-67
2022/03/14 08:15:32;;;;;;;4.00;1.88;;;18.60;52.90;;;;;;4975633;28;95242;-68
2022/03/14 08:18:00;;;;;;;3.10;1.40;;;18.60;52.80;;;;;;4973192;28;95511;-68
2022/03/14 08:20:27;;;;;;;3.85;1.60;;;18.60;52.90;;;;;;4973365;28;96198;-70
2022/03/14 08:22:54;;;;;;;4.13;1.77;;;18.50;52.80;;;;;;4973147;28;92433;-69
2022/03/14 08:25:21;;;;;;;3.75;1.60;;;18.50;52.90;;;;;;4972817;28;93088;-69
2022/03/14 08:27:47;;;;;;;6.47;1.77;;;18.50;53.00;;;;;;4971798;28;94282;-70
2022/03/14 08:30:14;;;;;;;2.50;1.70;;;18.50;53.00;;;;;;4972803;28;94802;-69
2022/03/14 08:32:41;;;;;;;4.90;1.83;;;18.50;53.10;;;;;;4972768;28;92588;-69
2022/03/14 08:35:08;;;;;;;4.60;1.80;;;18.50;53.10;;;;;;4972821;28;92188;-71
2022/03/14 08:37:36;;;;;;;4.78;1.60;;;18.50;53.10;;;;;;4973168;28;95671;-69
2022/03/14 08:40:03;;;;;;;3.30;1.60;;;18.40;53.10;;;;;;4972548;28;93986;-69
2022/03/14 08:42:29;;;;;;;4.70;1.73;;;18.40;53.10;;;;;;4972335;28;95195;-69
2022/03/14 08:44:55;;;;;;;2.95;1.30;;;18.40;53.10;;;;;;4972949;28;92740;-69
2022/03/14 08:47:20;;;;;;;3.55;1.40;;;18.40;53.10;;;;;;4971491;28;94116;-69
2022/03/14 08:49:46;;;;;;;3.60;1.30;;;18.40;54.20;;;;;;4972298;28;93782;-69
2022/03/14 08:52:11;;;;;;;4.50;1.60;;;18.40;53.20;;;;;;4972109;28;92590;-69
2022/03/14 08:54:38;;;;;;;3.42;1.35;;;18.40;53.20;;;;;;4972415;28;92952;-69
2022/03/14 08:57:04;;;;;;;4.05;1.42;;;18.40;53.20;;;;;;4972952;28;95068;-69
2022/03/14 08:59:31;;;;;;;2.83;1.40;;;18.30;53.10;;;;;;4971794;28;93834;-70
2022/03/14 09:01:58;;;;;;;2.42;1.30;;;18.30;53.10;;;;;;4971825;28;92519;-71
2022/03/14 09:04:24;;;;;;;4.28;1.75;;;18.30;53.10;;;;;;4972648;28;92587;-68
2022/03/14 09:06:50;;;;;;;4.28;1.42;;;18.30;53.10;;;;;;4970644;28;96503;-68
2022/03/14 09:09:16;;;;;;;2.33;1.63;;;18.30;53.10;;;;;;4970809;28;96374;-70
2022/03/14 09:11:42;;;;;;;6.15;1.80;;;18.30;53.10;;;;;;4972182;28;92903;-68
2022/03/14 09:14:07;;;;;;;3.05;1.33;;;18.30;53.10;;;;;;4971822;28;92621;-68
2022/03/14 09:16:35;;;;;;;3.17;1.40;;;18.30;53.10;;;;;;4971935;28;94125;-68
2022/03/14 09:19:01;;;;;;;4.40;1.38;;;18.30;53.10;;;;;;4971478;28;94821;-68
2022/03/14 09:21:27;;;;;;;6.72;1.60;;;18.30;53.00;;;;;;4971716;28;92764;-68
2022/03/14 09:23:53;;;;;;;6.82;2.00;;;18.30;53.10;;;;;;4971533;28;91789;-68
2022/03/14 09:26:19;;;;;;;4.13;1.60;;;18.30;53.10;;;;;;4972080;28;93259;-67
2022/03/14 09:28:47;;;;;;;5.28;1.55;;;18.30;53.10;;;;;;4971942;28;93805;-68
2022/03/14 09:31:13;;;;;;;4.50;1.63;;;18.30;53.20;;;;;;4971253;28;95890;-68
2022/03/14 09:33:39;;;;;;;7.05;1.58;;;18.30;53.20;;;;;;4971752;28;92531;-69
2022/03/14 09:36:05;;;;;;;5.47;2.00;;;18.20;53.20;;;;;;4970701;28;94711;-69
2022/03/14 09:38:31;;;;;;;3.85;2.15;;;18.20;53.20;;;;;;4971843;28;94028;-68
2022/03/14 09:41:01;;;;;;;3.63;1.70;;;18.20;53.30;;;;;;4970808;28;93138;-69
2022/03/14 09:43:29;;;;;;;4.93;1.80;;;18.20;53.20;;;;;;4971578;28;93083;-68
2022/03/14 09:45:55;;;;;;;3.33;1.70;;;18.20;53.30;;;;;;4971267;28;97103;-67
2022/03/14 09:48:23;;;;;;;4.95;1.70;;;18.20;53.30;;;;;;4971490;28;92925;-67
2022/03/14 09:50:49;;;;;;;6.38;1.98;;;18.20;54.30;;;;;;4972333;28;92524;-69
2022/03/14 09:53:17;;;;;;;4.03;2.10;;;18.20;53.30;;;;;;4972784;28;92504;-68
2022/03/14 09:55:47;;;;;;;4.55;1.90;;;18.20;53.30;;;;;;4974297;28;95558;-68
2022/03/14 09:58:15;;;;;;;4.82;2.10;;;18.20;53.30;;;;;;4980273;28;93910;-67
2022/03/14 10:00:42;;;;;;;5.70;1.95;;;18.20;53.30;;;;;;4981311;28;93892;-67
2022/03/14 10:03:08;;;;;;;4.70;2.17;;;18.20;53.30;;;;;;4972953;28;93010;-68
2022/03/14 10:05:34;;;;;;;6.68;2.20;;;18.20;53.30;;;;;;4972693;28;94670;-67
2022/03/14 10:08:00;;;;;;;8.43;1.90;;;18.20;53.40;;;;;;4970573;28;93712;-69
2022/03/14 10:10:26;;;;;;;5.15;2.28;;;18.20;53.70;;;;;;4971587;28;92992;-70
2022/03/14 10:12:53;;;;;;;3.85;2.03;;;18.20;54.20;;;;;;4972295;28;92224;-71
2022/03/14 10:15:25;;;;;;;3.67;1.90;;;18.30;54.40;;;;;;4971488;28;94536;-71
2022/03/14 10:17:53;;;;;;;4.25;1.77;;;18.30;54.30;;;;;;4971043;28;94133;-69
2022/03/14 10:20:19;;;;;;;5.90;2.60;;;18.40;54.40;;;;;;4969746;28;95430;-69
2022/03/14 10:22:45;;;;;;;6.53;1.80;;;18.50;54.40;;;;;;4972095;28;92887;-69
2022/03/14 10:25:18;;;;;;;3.05;1.67;;;18.50;54.20;;;;;;4969714;28;94422;-69
2022/03/14 10:27:56;;;;;;;3.80;1.88;;;18.60;54.00;;;;;;4970961;28;93889;-69
2022/03/14 10:30:26;;;;;;;5.03;1.65;;;18.70;55.00;;;;;;4971089;28;92863;-69
2022/03/14 10:33:04;;;;;;;4.93;1.77;;;18.80;53.80;;;;;;4971295;28;92574;-70
2022/03/14 10:35:34;;;;;;;3.42;1.80;;;18.90;53.60;;;;;;4970791;28;92995;-71
2022/03/14 10:38:03;;;;;;;2.65;2.00;;;19.00;53.40;;;;;;4971219;28;93870;-70
2022/03/14 10:40:38;;;;;;;3.63;1.98;;;19.00;53.10;;;;;;4971160;28;92556;-70
2022/03/14 10:43:23;;;;;;;3.47;2.10;;;19.10;52.90;;;;;;4970663;28;92994;-71
2022/03/14 10:45:49;;;;;;;3.40;1.70;;;19.20;52.90;;;;;;4970062;28;96799;-70
2022/03/14 10:48:15;;;;;;;3.80;2.22;;;19.20;52.70;;;;;;4970924;28;95177;-70
2022/03/14 10:50:42;;;;;;;4.47;2.05;;;19.30;52.80;;;;;;4969883;28;92651;-71
2022/03/14 10:53:16;;;;;;;4.45;2.10;;;19.30;52.80;;;;;;4970507;28;92901;-70
2022/03/14 10:55:45;;;;;;;3.53;2.42;;;19.30;52.70;;;;;;4971115;28;93664;-71
2022/03/14 10:58:19;;;;;;;3.00;2.25;;;19.30;52.80;;;;;;4970985;28;94669;-71
2022/03/14 11:00:49;;;;;;;3.05;2.20;;;19.30;53.10;;;;;;4969887;28;92571;-70
2022/03/14 11:03:26;;;;;;;3.35;2.40;;;19.30;53.10;;;;;;4970847;28;91923;-70
2022/03/14 11:05:54;;;;;;;3.40;2.33;;;19.30;53.00;;;;;;4971686;28;94438;-70
2022/03/14 11:08:40;;;;;;;3.95;2.30;;;19.30;53.00;;;;;;4970850;28;93905;-70
2022/03/14 11:11:16;;;;;;;5.20;2.50;;;19.30;52.90;;;;;;4969033;28;95012;-70
2022/03/14 11:13:44;;;;;;;4.38;2.40;;;19.30;52.90;;;;;;4971007;28;92563;-68
2022/03/14 11:16:21;;;;;;;3.72;2.30;;;19.30;52.90;;;;;;4970516;28;93267;-70
2022/03/14 11:18:48;;;;;;;3.47;2.75;;;19.30;53.10;;;;;;4969511;28;94196;-70
2022/03/14 11:21:15;;;;;;;3.72;2.60;;;19.30;53.20;;;;;;4970841;28;92525;-69
2022/03/14 11:23:48;;;;;;;7.68;2.80;;;19.30;53.10;;;;;;4971315;28;92558;-70
2022/03/14 11:26:20;;;;;;;6.68;2.80;;;19.30;53.20;;;;;;4970026;28;95567;-72
2022/03/14 11:28:47;;;;;;;3.88;3.03;;;19.30;53.20;;;;;;4970221;28;94003;-71
2022/03/14 11:31:13;;;;;;;5.32;3.17;;;19.30;53.20;;;;;;4971116;28;92682;-69
2022/03/14 11:33:41;;;;;;;5.20;3.10;;;19.30;53.30;;;;;;4970342;28;92589;-69
2022/03/14 11:36:07;;;;;;;6.82;3.60;;;19.30;53.00;;;;;;4967943;28;97507;-69
2022/03/14 11:38:33;;;;;;;4.43;2.95;;;19.30;52.80;;;;;;4970145;28;96370;-69
2022/03/14 11:41:00;;;;;;;5.65;3.53;;;19.30;52.80;;;;;;4972584;28;93115;-69
2022/03/14 11:43:27;;;;;;;4.10;3.70;;;19.30;52.70;;;;;;4975209;28;92888;-70
2022/03/14 11:45:55;;;;;;;4.45;3.25;;;19.30;52.70;;;;;;4972491;28;94226;-69
2022/03/14 11:48:22;;;;;;;5.22;3.55;;;19.30;52.90;;;;;;4970839;28;94080;-69
2022/03/14 11:50:49;;;;;;;4.93;3.28;;;19.30;52.90;;;;;;4973656;28;92518;-71
2022/03/14 11:53:22;;;;;;;4.03;3.60;;;19.40;53.50;;;;;;4974601;28;92262;-71
2022/03/14 11:55:56;;;;;;;7.97;4.00;;;19.40;53.90;;;;;;4974235;28;94308;-71
2022/03/14 11:58:49;;;;;;;6.60;3.78;;;19.40;53.70;;;;;;4972969;28;92719;-69
2022/03/14 12:01:21;;;;;;;7.00;3.90;;;19.40;53.80;;;;;;4973321;28;94993;-70
2022/03/14 12:03:50;;;;;;;6.38;4.28;;;19.40;54.10;;;;;;4974555;28;92563;-70
2022/03/14 12:06:17;;;;;;;5.53;3.75;;;19.40;54.00;;;;;;4973148;28;93077;-69
2022/03/14 12:08:45;;;;;;;4.95;4.05;;;19.40;54.10;;;;;;4973213;28;93865;-70
2022/03/14 12:11:37;;;;;;;5.75;3.90;;;19.40;54.20;;;;;;4973423;28;92977;-70
2022/03/14 12:14:08;;;;;;;7.50;4.32;;;19.40;54.20;;;;;;4972704;28;93952;-70
2022/03/14 12:16:37;;;;;;;4.63;4.10;;;19.40;54.20;;;;;;4973006;28;93112;-71
2022/03/14 12:19:32;;;;;;;6.38;4.63;;;19.40;54.20;;;;;;4972757;28;94208;-70
2022/03/14 12:22:02;;;;;;;6.88;4.45;;;19.40;54.20;;;;;;4971653;28;92620;-70
2022/03/14 12:24:37;;;;;;;6.25;4.28;;;19.40;54.20;;;;;;4973418;28;92515;-70
2022/03/14 12:27:22;;;;;;;6.22;4.40;;;19.40;54.10;;;;;;4972058;28;95264;-68
2022/03/14 12:29:52;;;;;;;5.85;3.97;;;19.40;54.10;;;;;;4971466;28;96264;-69
2022/03/14 12:32:31;;;;;;;5.93;4.13;;;19.40;54.20;;;;;;4972292;28;92843;-69
2022/03/14 12:35:04;;;;;;;5.75;4.25;;;19.40;54.10;;;;;;4973516;28;92427;-69
2022/03/14 12:37:36;;;;;;;6.20;4.22;;;19.40;54.20;;;;;;4972938;28;93248;-69
2022/03/14 12:40:11;;;;;;;5.95;4.75;;;19.40;54.20;;;;;;4972122;28;93453;-70
2022/03/14 12:42:42;;;;;;;6.60;4.75;;;19.40;54.20;;;;;;4973145;28;92538;-69
2022/03/14 12:45:24;;;;;;;7.05;4.47;;;19.30;54.20;;;;;;4973317;28;91755;-70
2022/03/14 12:47:53;;;;;;;6.53;4.45;;;19.30;54.20;;;;;;4972313;28;94275;-68
2022/03/14 12:50:50;;;;;;;5.95;4.30;;;19.30;54.20;;;;;;4972419;28;93824;-68
2022/03/14 12:53:29;;;;;;;6.32;4.45;;;19.30;54.40;;;;;;4970896;28;95441;-69
2022/03/14 12:55:57;;;;;;;5.72;4.68;;;19.30;54.30;;;;;;4972763;28;92432;-68
2022/03/14 12:58:27;;;;;;;6.88;4.78;;;19.30;54.20;;;;;;4972161;28;94101;-68
2022/03/14 13:01:01;;;;;;;6.75;4.65;;;19.30;54.30;;;;;;4972633;28;93895;-68
2022/03/14 13:03:27;;;;;;;9.57;5.18;;;19.30;54.10;;;;;;4972358;28;92937;-69
2022/03/14 13:05:54;;;;;;;6.15;4.80;;;19.30;54.20;;;;;;4972823;28;92897;-68
2022/03/14 13:08:20;;;;;;;6.03;4.88;;;19.30;54.20;;;;;;4971917;28;93271;-69
2022/03/14 13:10:48;;;;;;;5.93;4.28;;;19.30;54.20;;;;;;4971593;28;92668;-68
2022/03/14 13:13:25;;;;;;;5.95;4.75;;;19.30;54.20;;;;;;4971904;28;92484;-68
2022/03/14 13:16:14;;;;;;;5.40;4.50;;;19.30;54.20;;;;;;4972460;28;92575;-68
2022/03/14 13:18:39;;;;;;;8.50;4.57;;;19.30;54.30;;;;;;4969964;28;96630;-68
2022/03/14 13:21:25;;;;;;;7.40;4.97;;;19.30;54.00;;;;;;4971231;28;96356;-68
2022/03/14 13:23:59;;;;;;;5.85;4.70;;;19.30;53.50;;;;;;4972958;28;92508;-67
2022/03/14 13:26:32;;;;;;;5.70;4.45;;;19.30;53.50;;;;;;4975733;28;93031;-68
2022/03/14 13:28:58;;;;;;;5.97;4.60;;;19.20;53.40;;;;;;4977727;28;94116;-68
2022/03/14 13:31:33;;;;;;;5.70;4.60;;;19.20;53.40;;;;;;4974451;28;93025;-68
2022/03/14 13:33:59;;;;;;;4.78;4.30;;;19.20;53.30;;;;;;4973799;28;92543;-68
2022/03/14 13:36:25;;;;;;;6.97;4.93;;;19.20;53.30;;;;;;4973075;28;92071;-68
2022/03/14 13:38:52;;;;;;;5.95;4.95;;;19.20;53.20;;;;;;4972162;28;93065;-67
2022/03/14 13:41:26;;;;;;;5.38;4.80;;;19.20;53.20;;;;;;4971769;28;93870;-69
2022/03/14 13:43:59;;;;;;;6.25;4.75;;;19.20;53.00;;;;;;4971331;28;94808;-68
2022/03/14 13:46:43;;;;;;;5.95;4.68;;;19.20;53.00;;;;;;4972346;28;93173;-69
2022/03/14 13:49:18;;;;;;;5.18;4.20;;;19.20;52.80;;;;;;4972612;28;94335;-68
2022/03/14 13:51:55;;;;;;;6.32;4.55;;;19.10;52.80;;;;;;4972365;28;93975;-66
2022/03/14 13:54:33;;;;;;;5.65;4.70;;;19.10;52.90;;;;;;4971740;28;93037;-68